sensor_id;sensor_type;location;lat;lon;timestamp;P1;durP1;ratioP1;P2;durP2;ratioP2
635;SDS011;302;50.206;8.196;2023-06-14T00:01:35;6.40;;;5.70;;
635;SDS011;302;50.206;8.196;2023-06-14T00:04:00;7.00;;;6.40;;
635;SDS011;302;50.206;8.196;2023-06-14T00:06:29;7.38;;;6.68;;
635;SDS011;302;50.206;8.196;2023-06-14T00:08:55;6.97;;;6.37;;
635;SDS011;302;50.206;8.196;2023-06-14T00:11:21;5.70;;;5.30;;
635;SDS011;302;50.206;8.196;2023-06-14T00:13:46;6.20;;;5.80;;
635;SDS011;302;50.206;8.196;2023-06-14T00:16:11;6.80;;;6.20;;
635;SDS011;302;50.206;8.196;2023-06-14T00:18:37;6.27;;;5.77;;
635;SDS011;302;50.206;8.196;2023-06-14T00:21:03;6.47;;;5.97;;
635;SDS011;302;50.206;8.196;2023-06-14T00:23:29;5.83;;;5.43;;
635;SDS011;302;50.206;8.196;2023-06-14T00:25:54;6.47;;;5.97;;
635;SDS011;302;50.206;8.196;2023-06-14T00:28:19;6.20;;;5.77;;
635;SDS011;302;50.206;8.196;2023-06-14T00:30:45;6.40;;;6.00;;
635;SDS011;302;50.206;8.196;2023-06-14T00:33:11;5.70;;;5.30;;
635;SDS011;302;50.206;8.196;2023-06-14T00:35:36;6.50;;;6.00;;
635;SDS011;302;50.206;8.196;2023-06-14T00:38:01;6.28;;;5.88;;
635;SDS011;302;50.206;8.196;2023-06-14T00:40:27;6.60;;;6.00;;
635;SDS011;302;50.206;8.196;2023-06-14T00:42:52;5.38;;;4.97;;
635;SDS011;302;50.206;8.196;2023-06-14T00:45:17;6.03;;;5.43;;
635;SDS011;302;50.206;8.196;2023-06-14T00:47:43;5.87;;;5.37;;
635;SDS011;302;50.206;8.196;2023-06-14T00:50:08;7.13;;;6.50;;
635;SDS011;302;50.206;8.196;2023-06-14T00:52:34;5.93;;;5.50;;
635;SDS011;302;50.206;8.196;2023-06-14T00:54:59;6.00;;;5.50;;
635;SDS011;302;50.206;8.196;2023-06-14T00:57:25;6.60;;;6.20;;
635;SDS011;302;50.206;8.196;2023-06-14T00:59:51;6.33;;;5.73;;
635;SDS011;302;50.206;8.196;2023-06-14T01:02:16;6.53;;;6.03;;
635;SDS011;302;50.206;8.196;2023-06-14T01:04:42;6.03;;;5.63;;
635;SDS011;302;50.206;8.196;2023-06-14T01:07:15;5.70;;;5.30;;
635;SDS011;302;50.206;8.196;2023-06-14T01:12:29;6.35;;;5.75;;
635;SDS011;302;50.206;8.196;2023-06-14T01:14:56;5.65;;;5.25;;
635;SDS011;302;50.206;8.196;2023-06-14T01:17:22;6.27;;;5.87;;
635;SDS011;302;50.206;8.196;2023-06-14T01:19:48;6.78;;;6.18;;
635;SDS011;302;50.206;8.196;2023-06-14T01:22:13;6.80;;;6.30;;
635;SDS011;302;50.206;8.196;2023-06-14T01:24:39;6.30;;;5.90;;
635;SDS011;302;50.206;8.196;2023-06-14T01:27:04;6.50;;;6.00;;
635;SDS011;302;50.206;8.196;2023-06-14T01:29:30;5.88;;;5.47;;
635;SDS011;302;50.206;8.196;2023-06-14T01:31:58;6.72;;;6.22;;
635;SDS011;302;50.206;8.196;2023-06-14T01:34:23;6.77;;;6.10;;
635;SDS011;302;50.206;8.196;2023-06-14T01:36:48;6.20;;;5.70;;
635;SDS011;302;50.206;8.196;2023-06-14T01:39:14;5.95;;;5.53;;
635;SDS011;302;50.206;8.196;2023-06-14T01:41:40;5.90;;;5.47;;
635;SDS011;302;50.206;8.196;2023-06-14T01:44:06;5.83;;;5.40;;
635;SDS011;302;50.206;8.196;2023-06-14T01:46:32;7.43;;;6.72;;
635;SDS011;302;50.206;8.196;2023-06-14T01:48:57;6.13;;;5.63;;
635;SDS011;302;50.206;8.196;2023-06-14T01:51:22;5.90;;;5.20;;
635;SDS011;302;50.206;8.196;2023-06-14T01:53:47;6.95;;;6.43;;
635;SDS011;302;50.206;8.196;2023-06-14T01:56:13;5.97;;;5.47;;
635;SDS011;302;50.206;8.196;2023-06-14T01:58:38;7.60;;;6.93;;
635;SDS011;302;50.206;8.196;2023-06-14T02:01:04;6.20;;;5.80;;
635;SDS011;302;50.206;8.196;2023-06-14T02:03:30;6.27;;;5.80;;
635;SDS011;302;50.206;8.196;2023-06-14T02:05:59;5.57;;;5.18;;
635;SDS011;302;50.206;8.196;2023-06-14T02:08:24;6.50;;;5.90;;
635;SDS011;302;50.206;8.196;2023-06-14T02:10:49;6.13;;;5.63;;
635;SDS011;302;50.206;8.196;2023-06-14T02:13:14;6.73;;;6.23;;
635;SDS011;302;50.206;8.196;2023-06-14T02:15:39;6.50;;;6.00;;
635;SDS011;302;50.206;8.196;2023-06-14T02:18:05;5.93;;;5.53;;
635;SDS011;302;50.206;8.196;2023-06-14T02:20:30;7.13;;;6.53;;
635;SDS011;302;50.206;8.196;2023-06-14T02:22:56;6.40;;;5.80;;
635;SDS011;302;50.206;8.196;2023-06-14T02:25:21;6.10;;;5.70;;
635;SDS011;302;50.206;8.196;2023-06-14T02:27:46;6.60;;;6.10;;
635;SDS011;302;50.206;8.196;2023-06-14T02:30:11;6.10;;;5.70;;
635;SDS011;302;50.206;8.196;2023-06-14T02:32:37;6.30;;;5.80;;
635;SDS011;302;50.206;8.196;2023-06-14T02:35:02;7.13;;;5.90;;
635;SDS011;302;50.206;8.196;2023-06-14T02:37:27;6.43;;;5.83;;
635;SDS011;302;50.206;8.196;2023-06-14T02:39:53;6.47;;;5.93;;
635;SDS011;302;50.206;8.196;2023-06-14T02:42:18;7.07;;;5.80;;
635;SDS011;302;50.206;8.196;2023-06-14T02:44:43;6.07;;;5.53;;
635;SDS011;302;50.206;8.196;2023-06-14T02:47:10;6.00;;;5.50;;
635;SDS011;302;50.206;8.196;2023-06-14T02:49:35;6.23;;;5.73;;
635;SDS011;302;50.206;8.196;2023-06-14T02:52:00;6.43;;;5.93;;
635;SDS011;302;50.206;8.196;2023-06-14T02:54:25;6.47;;;5.97;;
635;SDS011;302;50.206;8.196;2023-06-14T02:56:50;5.78;;;5.38;;
635;SDS011;302;50.206;8.196;2023-06-14T02:59:15;6.63;;;6.10;;
635;SDS011;302;50.206;8.196;2023-06-14T03:01:42;6.22;;;5.82;;
635;SDS011;302;50.206;8.196;2023-06-14T03:04:07;6.07;;;5.57;;
635;SDS011;302;50.206;8.196;2023-06-14T03:06:32;6.23;;;5.63;;
635;SDS011;302;50.206;8.196;2023-06-14T03:08:58;6.00;;;5.57;;
635;SDS011;302;50.206;8.196;2023-06-14T03:11:29;6.78;;;6.18;;
635;SDS011;302;50.206;8.196;2023-06-14T03:13:54;6.40;;;5.90;;
635;SDS011;302;50.206;8.196;2023-06-14T03:16:21;6.45;;;5.85;;
635;SDS011;302;50.206;8.196;2023-06-14T03:18:49;6.18;;;5.70;;
635;SDS011;302;50.206;8.196;2023-06-14T03:21:14;5.70;;;5.30;;
635;SDS011;302;50.206;8.196;2023-06-14T03:23:41;7.15;;;6.65;;
635;SDS011;302;50.206;8.196;2023-06-14T03:26:06;5.85;;;5.30;;
635;SDS011;302;50.206;8.196;2023-06-14T03:28:31;5.90;;;5.50;;
635;SDS011;302;50.206;8.196;2023-06-14T03:30:56;6.57;;;5.97;;
635;SDS011;302;50.206;8.196;2023-06-14T03:33:21;6.27;;;5.83;;
635;SDS011;302;50.206;8.196;2023-06-14T03:35:46;6.85;;;6.35;;
635;SDS011;302;50.206;8.196;2023-06-14T03:38:11;6.43;;;5.93;;
635;SDS011;302;50.206;8.196;2023-06-14T03:40:37;6.83;;;5.77;;
635;SDS011;302;50.206;8.196;2023-06-14T03:43:02;6.95;;;6.35;;
635;SDS011;302;50.206;8.196;2023-06-14T03:45:27;6.30;;;5.80;;
635;SDS011;302;50.206;8.196;2023-06-14T03:47:52;6.33;;;5.77;;
635;SDS011;302;50.206;8.196;2023-06-14T03:50:18;5.30;;;4.90;;
635;SDS011;302;50.206;8.196;2023-06-14T03:52:44;5.40;;;5.00;;
635;SDS011;302;50.206;8.196;2023-06-14T03:55:09;5.73;;;5.20;;
635;SDS011;302;50.206;8.196;2023-06-14T03:57:35;6.07;;;5.53;;
635;SDS011;302;50.206;8.196;2023-06-14T04:00:00;6.13;;;5.53;;
635;SDS011;302;50.206;8.196;2023-06-14T04:02:26;6.10;;;5.70;;
635;SDS011;302;50.206;8.196;2023-06-14T04:04:53;6.10;;;5.60;;
635;SDS011;302;50.206;8.196;2023-06-14T04:07:19;5.47;;;5.07;;
635;SDS011;302;50.206;8.196;2023-06-14T04:09:44;6.47;;;5.97;;
635;SDS011;302;50.206;8.196;2023-06-14T04:12:09;6.13;;;5.60;;
635;SDS011;302;50.206;8.196;2023-06-14T04:14:36;6.60;;;5.43;;
635;SDS011;302;50.206;8.196;2023-06-14T04:17:01;6.50;;;5.90;;
635;SDS011;302;50.206;8.196;2023-06-14T04:19:26;5.80;;;5.30;;
635;SDS011;302;50.206;8.196;2023-06-14T04:21:52;5.95;;;5.45;;
635;SDS011;302;50.206;8.196;2023-06-14T04:24:17;5.90;;;5.50;;
635;SDS011;302;50.206;8.196;2023-06-14T04:26:43;7.60;;;7.00;;
635;SDS011;302;50.206;8.196;2023-06-14T04:29:13;6.05;;;5.55;;
635;SDS011;302;50.206;8.196;2023-06-14T04:31:45;6.30;;;5.80;;
635;SDS011;302;50.206;8.196;2023-06-14T04:34:10;6.68;;;6.07;;
635;SDS011;302;50.206;8.196;2023-06-14T04:36:41;5.70;;;5.20;;
635;SDS011;302;50.206;8.196;2023-06-14T04:39:08;6.07;;;5.55;;
635;SDS011;302;50.206;8.196;2023-06-14T04:41:33;7.27;;;5.53;;
635;SDS011;302;50.206;8.196;2023-06-14T04:44:00;5.47;;;5.05;;
635;SDS011;302;50.206;8.196;2023-06-14T04:46:27;5.85;;;5.35;;
635;SDS011;302;50.206;8.196;2023-06-14T04:48:53;6.03;;;5.63;;
635;SDS011;302;50.206;8.196;2023-06-14T04:51:34;5.70;;;5.30;;
635;SDS011;302;50.206;8.196;2023-06-14T04:54:09;5.65;;;5.25;;
635;SDS011;302;50.206;8.196;2023-06-14T04:56:42;5.72;;;5.22;;
635;SDS011;302;50.206;8.196;2023-06-14T04:59:14;5.90;;;5.50;;
635;SDS011;302;50.206;8.196;2023-06-14T05:01:44;6.70;;;6.20;;
635;SDS011;302;50.206;8.196;2023-06-14T05:04:14;5.70;;;5.30;;
635;SDS011;302;50.206;8.196;2023-06-14T05:06:42;6.10;;;5.60;;
635;SDS011;302;50.206;8.196;2023-06-14T05:09:22;5.63;;;5.13;;
635;SDS011;302;50.206;8.196;2023-06-14T05:11:50;5.30;;;4.97;;
635;SDS011;302;50.206;8.196;2023-06-14T05:14:19;5.97;;;5.47;;
635;SDS011;302;50.206;8.196;2023-06-14T05:16:49;6.10;;;5.07;;
635;SDS011;302;50.206;8.196;2023-06-14T05:19:16;5.95;;;5.45;;
635;SDS011;302;50.206;8.196;2023-06-14T05:21:44;5.32;;;4.95;;
635;SDS011;302;50.206;8.196;2023-06-14T05:24:10;5.93;;;5.35;;
635;SDS011;302;50.206;8.196;2023-06-14T05:26:37;6.13;;;5.53;;
635;SDS011;302;50.206;8.196;2023-06-14T05:29:05;5.55;;;5.05;;
635;SDS011;302;50.206;8.196;2023-06-14T05:31:31;10.20;;;4.90;;
635;SDS011;302;50.206;8.196;2023-06-14T05:33:59;5.00;;;4.60;;
635;SDS011;302;50.206;8.196;2023-06-14T05:36:27;5.40;;;5.00;;
635;SDS011;302;50.206;8.196;2023-06-14T05:38:55;5.60;;;5.20;;
635;SDS011;302;50.206;8.196;2023-06-14T05:41:25;5.60;;;5.20;;
635;SDS011;302;50.206;8.196;2023-06-14T05:43:53;5.18;;;4.78;;
635;SDS011;302;50.206;8.196;2023-06-14T05:46:19;5.25;;;4.85;;
635;SDS011;302;50.206;8.196;2023-06-14T05:48:50;5.85;;;5.45;;
635;SDS011;302;50.206;8.196;2023-06-14T05:51:17;5.07;;;4.68;;
635;SDS011;302;50.206;8.196;2023-06-14T05:53:45;5.22;;;4.80;;
635;SDS011;302;50.206;8.196;2023-06-14T05:56:13;5.05;;;4.65;;
635;SDS011;302;50.206;8.196;2023-06-14T05:58:39;5.28;;;4.65;;
635;SDS011;302;50.206;8.196;2023-06-14T06:01:05;4.80;;;4.40;;
635;SDS011;302;50.206;8.196;2023-06-14T06:03:33;4.70;;;4.40;;
635;SDS011;302;50.206;8.196;2023-06-14T06:06:01;5.28;;;4.88;;
635;SDS011;302;50.206;8.196;2023-06-14T06:08:28;5.88;;;5.47;;
635;SDS011;302;50.206;8.196;2023-06-14T06:10:54;5.17;;;4.67;;
635;SDS011;302;50.206;8.196;2023-06-14T06:13:19;6.43;;;4.50;;
635;SDS011;302;50.206;8.196;2023-06-14T06:15:45;5.20;;;4.70;;
635;SDS011;302;50.206;8.196;2023-06-14T06:18:12;5.07;;;4.68;;
635;SDS011;302;50.206;8.196;2023-06-14T06:20:38;4.77;;;4.40;;
635;SDS011;302;50.206;8.196;2023-06-14T06:23:04;4.60;;;4.20;;
635;SDS011;302;50.206;8.196;2023-06-14T06:25:35;5.55;;;5.05;;
635;SDS011;302;50.206;8.196;2023-06-14T06:28:00;4.40;;;4.00;;
635;SDS011;302;50.206;8.196;2023-06-14T06:30:26;5.23;;;4.50;;
635;SDS011;302;50.206;8.196;2023-06-14T06:32:52;4.68;;;4.28;;
635;SDS011;302;50.206;8.196;2023-06-14T06:35:18;5.07;;;4.67;;
635;SDS011;302;50.206;8.196;2023-06-14T06:37:48;7.18;;;4.82;;
635;SDS011;302;50.206;8.196;2023-06-14T06:40:14;3.97;;;3.67;;
635;SDS011;302;50.206;8.196;2023-06-14T06:42:41;5.05;;;3.80;;
635;SDS011;302;50.206;8.196;2023-06-14T06:45:07;4.75;;;3.75;;
635;SDS011;302;50.206;8.196;2023-06-14T06:47:33;4.32;;;3.92;;
635;SDS011;302;50.206;8.196;2023-06-14T06:50:00;4.15;;;3.85;;
635;SDS011;302;50.206;8.196;2023-06-14T06:52:27;3.83;;;3.53;;
635;SDS011;302;50.206;8.196;2023-06-14T06:54:54;4.80;;;4.45;;
635;SDS011;302;50.206;8.196;2023-06-14T06:57:21;3.63;;;3.33;;
635;SDS011;302;50.206;8.196;2023-06-14T06:59:51;3.85;;;3.40;;
635;SDS011;302;50.206;8.196;2023-06-14T07:02:17;3.65;;;3.38;;
635;SDS011;302;50.206;8.196;2023-06-14T07:04:43;3.40;;;3.10;;
635;SDS011;302;50.206;8.196;2023-06-14T07:07:09;4.30;;;3.40;;
635;SDS011;302;50.206;8.196;2023-06-14T07:09:37;4.10;;;3.42;;
635;SDS011;302;50.206;8.196;2023-06-14T07:12:07;3.80;;;3.50;;
635;SDS011;302;50.206;8.196;2023-06-14T07:14:34;3.30;;;3.10;;
635;SDS011;302;50.206;8.196;2023-06-14T07:17:04;3.97;;;3.30;;
635;SDS011;302;50.206;8.196;2023-06-14T07:19:39;3.05;;;2.85;;
635;SDS011;302;50.206;8.196;2023-06-14T07:34:07;4.43;;;3.00;;
635;SDS011;302;50.206;8.196;2023-06-14T07:36:35;3.25;;;2.97;;
635;SDS011;302;50.206;8.196;2023-06-14T07:39:04;3.33;;;3.03;;
635;SDS011;302;50.206;8.196;2023-06-14T07:41:33;3.00;;;2.80;;
635;SDS011;302;50.206;8.196;2023-06-14T07:43:58;2.80;;;2.60;;
635;SDS011;302;50.206;8.196;2023-06-14T07:46:23;2.97;;;2.78;;
635;SDS011;302;50.206;8.196;2023-06-14T07:48:49;4.10;;;2.77;;
635;SDS011;302;50.206;8.196;2023-06-14T07:51:14;3.75;;;3.45;;
635;SDS011;302;50.206;8.196;2023-06-14T07:53:39;3.10;;;2.90;;
635;SDS011;302;50.206;8.196;2023-06-14T07:56:06;2.92;;;2.72;;
635;SDS011;302;50.206;8.196;2023-06-14T07:58:31;3.33;;;3.07;;
635;SDS011;302;50.206;8.196;2023-06-14T08:00:56;4.68;;;2.90;;
635;SDS011;302;50.206;8.196;2023-06-14T08:03:21;3.00;;;2.80;;
635;SDS011;302;50.206;8.196;2023-06-14T08:05:47;3.33;;;3.13;;
635;SDS011;302;50.206;8.196;2023-06-14T08:08:12;3.03;;;2.83;;
635;SDS011;302;50.206;8.196;2023-06-14T08:10:37;3.10;;;2.90;;
635;SDS011;302;50.206;8.196;2023-06-14T08:13:03;3.35;;;3.15;;
635;SDS011;302;50.206;8.196;2023-06-14T08:15:28;3.70;;;3.40;;
635;SDS011;302;50.206;8.196;2023-06-14T08:17:53;3.25;;;3.03;;
635;SDS011;302;50.206;8.196;2023-06-14T08:20:18;3.03;;;2.83;;
635;SDS011;302;50.206;8.196;2023-06-14T08:22:43;3.33;;;3.03;;
635;SDS011;302;50.206;8.196;2023-06-14T08:25:11;3.00;;;2.70;;
635;SDS011;302;50.206;8.196;2023-06-14T08:27:37;3.17;;;2.87;;
635;SDS011;302;50.206;8.196;2023-06-14T08:30:02;3.03;;;2.73;;
635;SDS011;302;50.206;8.196;2023-06-14T08:32:28;2.67;;;2.47;;
635;SDS011;302;50.206;8.196;2023-06-14T08:34:53;2.67;;;2.47;;
635;SDS011;302;50.206;8.196;2023-06-14T08:38:18;3.42;;;3.15;;
635;SDS011;302;50.206;8.196;2023-06-14T08:40:43;3.13;;;2.93;;
635;SDS011;302;50.206;8.196;2023-06-14T08:43:10;2.78;;;2.47;;
635;SDS011;302;50.206;8.196;2023-06-14T08:45:35;3.00;;;2.60;;
635;SDS011;302;50.206;8.196;2023-06-14T08:48:01;3.03;;;2.83;;
635;SDS011;302;50.206;8.196;2023-06-14T08:50:26;2.40;;;2.20;;
635;SDS011;302;50.206;8.196;2023-06-14T08:54:59;2.50;;;2.30;;
635;SDS011;302;50.206;8.196;2023-06-14T08:57:25;2.53;;;2.33;;
635;SDS011;302;50.206;8.196;2023-06-14T08:59:50;1.87;;;1.77;;
635;SDS011;302;50.206;8.196;2023-06-14T09:02:18;2.28;;;2.08;;
635;SDS011;302;50.206;8.196;2023-06-14T09:04:44;2.72;;;2.53;;
635;SDS011;302;50.206;8.196;2023-06-14T09:07:10;2.47;;;2.27;;
635;SDS011;302;50.206;8.196;2023-06-14T09:09:38;2.20;;;2.10;;
635;SDS011;302;50.206;8.196;2023-06-14T09:12:03;2.30;;;2.13;;
635;SDS011;302;50.206;8.196;2023-06-14T09:14:28;2.60;;;2.40;;
635;SDS011;302;50.206;8.196;2023-06-14T09:16:54;2.37;;;2.17;;
635;SDS011;302;50.206;8.196;2023-06-14T09:19:25;2.47;;;2.33;;
635;SDS011;302;50.206;8.196;2023-06-14T09:21:50;5.05;;;3.53;;
635;SDS011;302;50.206;8.196;2023-06-14T09:24:17;2.72;;;2.53;;
635;SDS011;302;50.206;8.196;2023-06-14T09:26:43;2.93;;;2.73;;
635;SDS011;302;50.206;8.196;2023-06-14T09:29:09;3.10;;;2.90;;
635;SDS011;302;50.206;8.196;2023-06-14T09:31:34;2.77;;;2.57;;
635;SDS011;302;50.206;8.196;2023-06-14T09:34:01;2.60;;;2.40;;
635;SDS011;302;50.206;8.196;2023-06-14T09:36:27;3.67;;;2.42;;
635;SDS011;302;50.206;8.196;2023-06-14T09:38:56;2.33;;;2.10;;
635;SDS011;302;50.206;8.196;2023-06-14T09:41:31;2.53;;;2.33;;
635;SDS011;302;50.206;8.196;2023-06-14T09:43:57;2.80;;;2.60;;
635;SDS011;302;50.206;8.196;2023-06-14T09:46:25;2.63;;;2.42;;
635;SDS011;302;50.206;8.196;2023-06-14T09:48:51;2.70;;;2.50;;
635;SDS011;302;50.206;8.196;2023-06-14T09:51:16;2.63;;;2.42;;
635;SDS011;302;50.206;8.196;2023-06-14T09:53:42;2.72;;;2.50;;
635;SDS011;302;50.206;8.196;2023-06-14T09:56:08;2.80;;;2.60;;
635;SDS011;302;50.206;8.196;2023-06-14T09:58:34;3.10;;;2.70;;
635;SDS011;302;50.206;8.196;2023-06-14T10:01:01;3.00;;;2.80;;
635;SDS011;302;50.206;8.196;2023-06-14T10:03:28;2.97;;;2.70;;
635;SDS011;302;50.206;8.196;2023-06-14T10:05:55;2.97;;;2.53;;
635;SDS011;302;50.206;8.196;2023-06-14T10:08:23;4.10;;;2.67;;
635;SDS011;302;50.206;8.196;2023-06-14T10:10:50;2.90;;;2.70;;
635;SDS011;302;50.206;8.196;2023-06-14T10:13:16;3.10;;;2.57;;
635;SDS011;302;50.206;8.196;2023-06-14T10:15:52;3.13;;;2.93;;
635;SDS011;302;50.206;8.196;2023-06-14T10:18:24;3.17;;;2.97;;
635;SDS011;302;50.206;8.196;2023-06-14T10:21:08;3.28;;;2.97;;
635;SDS011;302;50.206;8.196;2023-06-14T10:23:39;3.05;;;2.67;;
635;SDS011;302;50.206;8.196;2023-06-14T10:26:06;3.00;;;2.80;;
635;SDS011;302;50.206;8.196;2023-06-14T10:28:31;2.80;;;2.60;;
635;SDS011;302;50.206;8.196;2023-06-14T10:31:04;3.07;;;2.87;;
635;SDS011;302;50.206;8.196;2023-06-14T10:33:29;2.85;;;2.65;;
635;SDS011;302;50.206;8.196;2023-06-14T10:36:11;3.00;;;2.80;;
635;SDS011;302;50.206;8.196;2023-06-14T10:38:58;2.80;;;2.60;;
635;SDS011;302;50.206;8.196;2023-06-14T10:41:24;2.70;;;2.40;;
635;SDS011;302;50.206;8.196;2023-06-14T10:43:50;2.78;;;2.58;;
635;SDS011;302;50.206;8.196;2023-06-14T10:46:18;3.10;;;2.90;;
635;SDS011;302;50.206;8.196;2023-06-14T10:48:47;3.10;;;2.80;;
635;SDS011;302;50.206;8.196;2023-06-14T10:51:19;2.78;;;2.55;;
635;SDS011;302;50.206;8.196;2023-06-14T10:53:46;2.60;;;2.40;;
635;SDS011;302;50.206;8.196;2023-06-14T10:56:28;2.53;;;2.33;;
635;SDS011;302;50.206;8.196;2023-06-14T10:58:53;3.40;;;3.10;;
635;SDS011;302;50.206;8.196;2023-06-14T11:01:21;2.83;;;2.63;;
635;SDS011;302;50.206;8.196;2023-06-14T11:03:51;3.05;;;2.85;;
635;SDS011;302;50.206;8.196;2023-06-14T11:06:17;3.00;;;2.80;;
635;SDS011;302;50.206;8.196;2023-06-14T11:11:31;3.00;;;2.80;;
635;SDS011;302;50.206;8.196;2023-06-14T11:13:57;2.90;;;2.70;;
635;SDS011;302;50.206;8.196;2023-06-14T11:16:25;3.53;;;2.85;;
635;SDS011;302;50.206;8.196;2023-06-14T11:18:51;3.33;;;3.13;;
635;SDS011;302;50.206;8.196;2023-06-14T11:21:19;2.67;;;2.57;;
635;SDS011;302;50.206;8.196;2023-06-14T11:23:53;3.20;;;2.90;;
635;SDS011;302;50.206;8.196;2023-06-14T11:26:29;2.93;;;2.73;;
635;SDS011;302;50.206;8.196;2023-06-14T11:28:56;4.43;;;3.00;;
635;SDS011;302;50.206;8.196;2023-06-14T11:31:22;3.03;;;2.83;;
635;SDS011;302;50.206;8.196;2023-06-14T11:33:50;3.60;;;3.37;;
635;SDS011;302;50.206;8.196;2023-06-14T11:36:16;2.90;;;2.70;;
635;SDS011;302;50.206;8.196;2023-06-14T11:38:41;3.27;;;2.97;;
635;SDS011;302;50.206;8.196;2023-06-14T11:41:06;3.20;;;2.90;;
635;SDS011;302;50.206;8.196;2023-06-14T11:43:32;2.90;;;2.70;;
635;SDS011;302;50.206;8.196;2023-06-14T11:45:58;3.53;;;3.23;;
635;SDS011;302;50.206;8.196;2023-06-14T11:48:23;2.90;;;2.70;;
635;SDS011;302;50.206;8.196;2023-06-14T11:51:00;3.20;;;2.90;;
635;SDS011;302;50.206;8.196;2023-06-14T11:53:25;3.10;;;2.90;;
635;SDS011;302;50.206;8.196;2023-06-14T11:55:51;2.70;;;2.60;;
635;SDS011;302;50.206;8.196;2023-06-14T11:58:16;3.43;;;3.13;;
635;SDS011;302;50.206;8.196;2023-06-14T12:00:41;3.33;;;3.13;;
635;SDS011;302;50.206;8.196;2023-06-14T12:03:07;2.80;;;2.60;;
635;SDS011;302;50.206;8.196;2023-06-14T12:05:32;2.93;;;2.73;;
635;SDS011;302;50.206;8.196;2023-06-14T12:07:59;3.33;;;3.03;;
635;SDS011;302;50.206;8.196;2023-06-14T12:10:25;3.00;;;2.80;;
635;SDS011;302;50.206;8.196;2023-06-14T12:12:50;3.07;;;2.87;;
635;SDS011;302;50.206;8.196;2023-06-14T12:15:15;2.77;;;2.57;;
635;SDS011;302;50.206;8.196;2023-06-14T12:17:42;2.80;;;2.60;;
635;SDS011;302;50.206;8.196;2023-06-14T12:20:08;3.40;;;3.10;;
635;SDS011;302;50.206;8.196;2023-06-14T12:22:36;3.20;;;3.00;;
635;SDS011;302;50.206;8.196;2023-06-14T12:25:01;3.27;;;2.97;;
635;SDS011;302;50.206;8.196;2023-06-14T12:27:28;2.80;;;2.60;;
635;SDS011;302;50.206;8.196;2023-06-14T12:30:03;3.23;;;3.03;;
635;SDS011;302;50.206;8.196;2023-06-14T12:32:28;4.00;;;3.20;;
635;SDS011;302;50.206;8.196;2023-06-14T12:34:54;2.93;;;2.73;;
635;SDS011;302;50.206;8.196;2023-06-14T12:37:19;3.57;;;3.37;;
635;SDS011;302;50.206;8.196;2023-06-14T12:39:44;3.50;;;3.30;;
635;SDS011;302;50.206;8.196;2023-06-14T12:42:10;2.93;;;2.73;;
635;SDS011;302;50.206;8.196;2023-06-14T12:44:35;3.00;;;2.80;;
635;SDS011;302;50.206;8.196;2023-06-14T12:47:05;2.70;;;2.50;;
635;SDS011;302;50.206;8.196;2023-06-14T12:49:30;2.87;;;2.67;;
635;SDS011;302;50.206;8.196;2023-06-14T12:51:56;2.70;;;2.50;;
635;SDS011;302;50.206;8.196;2023-06-14T12:54:21;3.40;;;3.10;;
635;SDS011;302;50.206;8.196;2023-06-14T12:56:50;3.13;;;2.90;;
635;SDS011;302;50.206;8.196;2023-06-14T12:59:16;2.57;;;2.30;;
635;SDS011;302;50.206;8.196;2023-06-14T13:01:41;2.40;;;2.20;;
635;SDS011;302;50.206;8.196;2023-06-14T13:04:06;2.30;;;2.20;;
635;SDS011;302;50.206;8.196;2023-06-14T13:06:31;2.57;;;2.37;;
635;SDS011;302;50.206;8.196;2023-06-14T13:08:56;2.70;;;2.50;;
635;SDS011;302;50.206;8.196;2023-06-14T13:11:23;3.00;;;2.80;;
635;SDS011;302;50.206;8.196;2023-06-14T13:13:49;2.53;;;2.40;;
635;SDS011;302;50.206;8.196;2023-06-14T13:16:14;3.00;;;2.70;;
635;SDS011;302;50.206;8.196;2023-06-14T13:18:39;3.10;;;2.80;;
635;SDS011;302;50.206;8.196;2023-06-14T13:21:04;3.20;;;2.80;;
635;SDS011;302;50.206;8.196;2023-06-14T13:23:30;3.17;;;2.97;;
635;SDS011;302;50.206;8.196;2023-06-14T13:25:55;3.10;;;2.90;;
635;SDS011;302;50.206;8.196;2023-06-14T13:28:20;2.33;;;2.15;;
635;SDS011;302;50.206;8.196;2023-06-14T13:30:45;3.20;;;2.77;;
635;SDS011;302;50.206;8.196;2023-06-14T13:33:11;2.90;;;2.70;;
635;SDS011;302;50.206;8.196;2023-06-14T13:35:36;2.87;;;2.67;;
635;SDS011;302;50.206;8.196;2023-06-14T13:38:01;3.00;;;2.80;;
635;SDS011;302;50.206;8.196;2023-06-14T13:40:26;2.90;;;2.60;;
635;SDS011;302;50.206;8.196;2023-06-14T13:42:52;2.60;;;2.40;;
635;SDS011;302;50.206;8.196;2023-06-14T13:45:17;3.40;;;3.10;;
635;SDS011;302;50.206;8.196;2023-06-14T13:47:42;5.87;;;3.30;;
635;SDS011;302;50.206;8.196;2023-06-14T13:50:07;2.70;;;2.50;;
635;SDS011;302;50.206;8.196;2023-06-14T13:52:33;3.00;;;2.80;;
635;SDS011;302;50.206;8.196;2023-06-14T13:54:58;2.73;;;2.57;;
635;SDS011;302;50.206;8.196;2023-06-14T13:57:25;2.80;;;2.60;;
635;SDS011;302;50.206;8.196;2023-06-14T13:59:50;2.90;;;2.70;;
635;SDS011;302;50.206;8.196;2023-06-14T14:02:18;3.30;;;3.00;;
635;SDS011;302;50.206;8.196;2023-06-14T14:04:43;2.97;;;2.77;;
635;SDS011;302;50.206;8.196;2023-06-14T14:07:09;3.30;;;2.70;;
635;SDS011;302;50.206;8.196;2023-06-14T14:09:34;3.40;;;2.60;;
635;SDS011;302;50.206;8.196;2023-06-14T14:12:00;2.80;;;2.60;;
635;SDS011;302;50.206;8.196;2023-06-14T14:14:25;2.70;;;2.50;;
635;SDS011;302;50.206;8.196;2023-06-14T14:16:50;3.47;;;3.17;;
635;SDS011;302;50.206;8.196;2023-06-14T14:19:19;3.00;;;2.80;;
635;SDS011;302;50.206;8.196;2023-06-14T14:21:44;2.83;;;2.63;;
635;SDS011;302;50.206;8.196;2023-06-14T14:24:10;3.37;;;3.10;;
635;SDS011;302;50.206;8.196;2023-06-14T14:26:35;3.13;;;2.93;;
635;SDS011;302;50.206;8.196;2023-06-14T14:29:00;3.92;;;3.58;;
635;SDS011;302;50.206;8.196;2023-06-14T14:31:27;3.83;;;3.03;;
635;SDS011;302;50.206;8.196;2023-06-14T14:33:52;3.10;;;2.90;;
635;SDS011;302;50.206;8.196;2023-06-14T14:36:17;2.63;;;2.53;;
635;SDS011;302;50.206;8.196;2023-06-14T14:38:42;3.72;;;3.33;;
635;SDS011;302;50.206;8.196;2023-06-14T14:41:08;3.23;;;3.03;;
635;SDS011;302;50.206;8.196;2023-06-14T14:43:33;3.25;;;3.00;;
635;SDS011;302;50.206;8.196;2023-06-14T14:45:58;3.17;;;2.97;;
635;SDS011;302;50.206;8.196;2023-06-14T14:48:23;3.67;;;3.38;;
635;SDS011;302;50.206;8.196;2023-06-14T14:50:48;2.83;;;2.63;;
635;SDS011;302;50.206;8.196;2023-06-14T14:53:13;3.20;;;3.00;;
635;SDS011;302;50.206;8.196;2023-06-14T14:55:41;2.87;;;2.67;;
635;SDS011;302;50.206;8.196;2023-06-14T14:58:07;2.83;;;2.63;;
635;SDS011;302;50.206;8.196;2023-06-14T15:00:33;2.90;;;2.70;;
635;SDS011;302;50.206;8.196;2023-06-14T15:02:58;2.70;;;2.58;;
635;SDS011;302;50.206;8.196;2023-06-14T15:05:23;3.00;;;2.80;;
635;SDS011;302;50.206;8.196;2023-06-14T15:07:48;3.27;;;3.07;;
635;SDS011;302;50.206;8.196;2023-06-14T15:10:13;3.23;;;2.93;;
635;SDS011;302;50.206;8.196;2023-06-14T15:12:39;3.27;;;3.07;;
635;SDS011;302;50.206;8.196;2023-06-14T15:15:04;3.30;;;3.00;;
635;SDS011;302;50.206;8.196;2023-06-14T15:17:29;3.07;;;2.80;;
635;SDS011;302;50.206;8.196;2023-06-14T15:19:54;2.67;;;2.50;;
635;SDS011;302;50.206;8.196;2023-06-14T15:22:20;3.17;;;2.97;;
635;SDS011;302;50.206;8.196;2023-06-14T15:24:45;2.95;;;2.75;;
635;SDS011;302;50.206;8.196;2023-06-14T15:27:13;3.20;;;3.00;;
635;SDS011;302;50.206;8.196;2023-06-14T15:29:41;3.10;;;2.90;;
635;SDS011;302;50.206;8.196;2023-06-14T15:32:06;3.10;;;2.90;;
635;SDS011;302;50.206;8.196;2023-06-14T15:34:32;3.50;;;3.17;;
635;SDS011;302;50.206;8.196;2023-06-14T15:36:57;2.87;;;2.67;;
635;SDS011;302;50.206;8.196;2023-06-14T15:39:22;3.10;;;3.00;;
635;SDS011;302;50.206;8.196;2023-06-14T15:41:48;3.10;;;2.90;;
635;SDS011;302;50.206;8.196;2023-06-14T15:44:14;3.63;;;3.43;;
635;SDS011;302;50.206;8.196;2023-06-14T15:46:39;3.27;;;3.07;;
635;SDS011;302;50.206;8.196;2023-06-14T15:49:12;3.43;;;3.23;;
635;SDS011;302;50.206;8.196;2023-06-14T15:51:38;3.20;;;3.00;;
635;SDS011;302;50.206;8.196;2023-06-14T15:54:03;2.97;;;2.77;;
635;SDS011;302;50.206;8.196;2023-06-14T15:56:28;4.20;;;3.37;;
635;SDS011;302;50.206;8.196;2023-06-14T15:58:53;3.30;;;3.10;;
635;SDS011;302;50.206;8.196;2023-06-14T16:01:18;3.00;;;2.90;;